Nearby METAR Reports

 

KLHW - Ft Stewart/Wrigh, Georgia, USA
Distance from station: NW 5mi, 8km
Updated: Sun, 17-Dec-2017 11:56pm EST
Partly cloudy
Partly cloudy
 Wind from calm
Wind: Calm
Temperature: 52°F , 11°C
Dew Point: 46°F , 8°C
Humidity: 82%
Clouds: Partly cloudy
Visibility: 10 miles , 16 km
Cloud details: Partly cloudy 18000 ft
2017/12/18 04:56 KLHW 180456Z AUTO 00000KT 10SM SCT180 11/08 M RMK AO2 SLPNO T01060084 402130009 $
KSVN - Savannah/Hunter, Georgia, USA
Distance from station: NE 24mi, 39km
Updated: Sun, 17-Dec-2017 11:56pm EST
Clear
Clear
 Wind from SSE
Wind: SSE 3 mph , 6 km/h
Temperature: 52°F , 11°C
Dew Point: 50°F , 10°C
Humidity: 94%
Clouds: Clear
Visibility: 10 miles , 16 km
2017/12/18 04:56 KSVN 180456Z AUTO 15003KT 10SM CLR 11/10 M RMK AO2 SLPNO T01140095 401860015 $
 
KSAV - Savannah, Georgia, USA
Distance from station: NE 27mi, 43km
Updated: Sun, 17-Dec-2017 11:53pm EST
Clear
Clear
 Wind from calm
Wind: Calm
Temperature: 52°F , 11°C
Dew Point: 48°F , 9°C
Humidity: 88%
Barometer: 30.19 inHg , 1022.4 hPa
Clouds: Clear
Visibility: 10 miles , 16 km
2017/12/18 04:53 KSAV 180453Z 00000KT 10SM CLR 11/09 A3019 RMK AO2 SLP223 LAST T01060089 401940006
KJES - Jesup/Wayne Cty, Georgia, USA
Distance from station: SW 30mi, 48km
Updated: Sun, 17-Dec-2017 8:03pm EST
NOT Current
Mostly cloudy
Mostly cloudy
 Wind from calm
Wind: Calm
Temperature: 59°F , 15°C
Dew Point: 54°F , 12°C
Humidity: 82%
Barometer: 30.22 inHg , 1023.4 hPa
Clouds: Mostly cloudy
Visibility: 10 miles , 16 km
Cloud details: Mostly cloudy 8500 ft
2017/12/18 01:03 KJES 180103Z AUTO 00000KT 10SM BKN085 15/12 A3022 RMK AO2
 
KCWV - Claxton/Evans Co, Georgia, USA
Distance from station: NW 34mi, 55km
Updated: Sun, 17-Dec-2017 11:55pm EST
Clear
Clear
 Wind from calm
Wind: Calm
Temperature: 52°F , 11°C
Dew Point: 50°F , 10°C
Humidity: 94%
Barometer: 30.18 inHg , 1022 hPa
Clouds: Clear
Visibility: 10 miles , 16 km
2017/12/18 04:55 KCWV 180455Z AUTO 00000KT 10SM CLR 11/10 A3018 RMK AO2 LTG DSNT W T01140101
KBQK - Brunswick/Glynco, Georgia, USA
Distance from station: S 40mi, 64km
Updated: Sun, 17-Dec-2017 11:55pm EST
Clear
Clear
 Wind from SSW
Wind: SSW 7 mph , 11 km/h
Temperature: 61°F , 16°C
Dew Point: 55°F , 13°C
Humidity: 83%
Barometer: 30.19 inHg , 1022.4 hPa
Clouds: Clear
Visibility: 10 miles , 16 km
2017/12/18 04:55 KBQK 180455Z AUTO 21006KT 10SM CLR 16/13 A3019 RMK AO2 LTG DSNT W
 
KSSI - Brunswick, Georgia, USA
Distance from station: S 47mi, 76km
Updated: Sun, 17-Dec-2017 11:53pm EST
Clear
Clear
 Wind from S
Wind: S 9 mph , 15 km/h
Temperature: 63°F , 17°C
Dew Point: 61°F , 16°C
Humidity: 94%
Barometer: 30.17 inHg , 1021.7 hPa
Clouds: Clear
Visibility: 10 miles , 16 km
2017/12/18 04:53 KSSI 180453Z AUTO 19008KT 10SM CLR 17/16 A3017 RMK AO2 SLP219 T01670156 401830056
KTBR - Statesboro, Georgia, USA
Distance from station: NNW 48mi, 77km
Updated: Sun, 17-Dec-2017 11:55pm EST
Partly cloudy
Partly cloudy
 Wind from calm
Wind: Calm
Temperature: 52°F , 11°C
Dew Point: 46°F , 8°C
Humidity: 82%
Barometer: 30.18 inHg , 1022 hPa
Clouds: Partly cloudy
Visibility: 10 miles , 16 km
Cloud details: Partly cloudy 4800 ft
2017/12/18 04:55 KTBR 180455Z AUTO 00000KT 10SM SCT048 11/08 A3018 RMK AO2 T01100079